createdAt,value
2017-11-26T00:00:21.393Z,2.60
2017-11-26T00:02:48.892Z,2.50
2017-11-26T00:05:16.411Z,2.50
2017-11-26T00:07:43.908Z,2.40
2017-11-26T00:10:11.434Z,2.40
2017-11-26T00:12:38.935Z,2.30
2017-11-26T00:15:06.428Z,2.20
2017-11-26T00:17:33.951Z,2.20
2017-11-26T00:20:01.449Z,2.10
2017-11-26T00:22:28.964Z,2.10
2017-11-26T00:24:56.455Z,2.10
2017-11-26T00:27:23.967Z,2.10
2017-11-26T00:29:51.463Z,2.10
2017-11-26T00:32:19.740Z,1.90
2017-11-26T00:34:47.996Z,1.80
2017-11-26T00:37:15.533Z,1.80
2017-11-26T00:39:43.027Z,1.90
2017-11-26T00:42:11.288Z,1.80
2017-11-26T00:44:38.800Z,1.80
2017-11-26T00:47:06.300Z,1.80
2017-11-26T00:49:33.815Z,1.80
2017-11-26T00:52:01.316Z,1.80
2017-11-26T00:54:28.832Z,1.80
2017-11-26T00:56:56.337Z,1.80
2017-11-26T00:59:24.628Z,1.60
2017-11-26T01:01:52.899Z,1.60
2017-11-26T01:04:21.203Z,1.50
2017-11-26T01:06:48.704Z,1.50
2017-11-26T01:09:16.204Z,1.50
2017-11-26T01:11:43.732Z,1.40
2017-11-26T01:14:11.230Z,1.40
2017-11-26T01:16:38.747Z,1.40
2017-11-26T01:19:06.240Z,1.40
2017-11-26T01:21:33.784Z,1.30
2017-11-26T01:24:02.046Z,1.20
2017-11-26T01:26:30.315Z,1.20
2017-11-26T01:28:57.828Z,1.20
2017-11-26T01:31:25.323Z,1.20
2017-11-26T01:33:52.854Z,1.00
2017-11-26T01:36:20.348Z,1.00
2017-11-26T01:38:47.864Z,1.00
2017-11-26T01:41:15.366Z,0.90
2017-11-26T01:43:42.882Z,0.90
2017-11-26T01:46:10.397Z,0.90
2017-11-26T01:48:38.679Z,0.80
2017-11-26T01:51:06.948Z,0.90
2017-11-26T01:53:35.217Z,0.90
2017-11-26T01:56:03.500Z,0.90
2017-11-26T01:58:31.768Z,0.80
2017-11-26T02:01:00.048Z,0.80
2017-11-26T02:03:28.317Z,0.70
2017-11-26T02:05:56.606Z,0.70
2017-11-26T02:08:24.879Z,0.80
2017-11-26T02:10:53.164Z,0.80
2017-11-26T02:13:21.432Z,0.70
2017-11-26T02:15:49.844Z,0.70
2017-11-26T02:18:17.344Z,0.60
2017-11-26T02:20:44.865Z,0.60
2017-11-26T02:23:12.377Z,0.60
2017-11-26T02:25:40.657Z,0.60
2017-11-26T02:28:08.936Z,0.50
2017-11-26T02:30:37.219Z,0.60
2017-11-26T02:33:16.616Z,0.60
2017-11-26T02:35:55.035Z,0.60
2017-11-26T02:38:22.553Z,0.60
2017-11-26T02:40:50.073Z,0.70
2017-11-26T02:43:18.332Z,0.60
2017-11-26T02:45:45.844Z,0.60
2017-11-26T02:48:13.348Z,0.70
2017-11-26T02:50:40.885Z,0.70
2017-11-26T02:53:08.388Z,0.80
2017-11-26T02:55:36.686Z,0.80
2017-11-26T02:58:04.187Z,0.80
2017-11-26T03:00:31.704Z,0.80
2017-11-26T03:02:59.245Z,0.80
2017-11-26T03:05:26.745Z,0.80
2017-11-26T03:07:54.261Z,0.80
2017-11-26T03:10:22.525Z,0.80
2017-11-26T03:12:50.837Z,0.80
2017-11-26T03:15:18.362Z,0.80
2017-11-26T03:17:46.643Z,0.90
2017-11-26T03:20:14.162Z,0.90
2017-11-26T03:22:41.691Z,1.00
2017-11-26T03:25:09.193Z,0.90
2017-11-26T03:27:36.695Z,0.80
2017-11-26T03:30:04.226Z,0.90
2017-11-26T03:32:32.500Z,0.70
2017-11-26T03:35:00.787Z,0.70
2017-11-26T03:37:29.054Z,0.70
2017-11-26T03:39:57.342Z,0.70
2017-11-26T03:42:25.612Z,0.70
2017-11-26T03:44:53.896Z,0.70
2017-11-26T03:47:21.400Z,0.70
2017-11-26T03:49:48.953Z,0.70
2017-11-26T03:52:16.455Z,0.60
2017-11-26T03:54:44.747Z,0.70
2017-11-26T03:57:12.247Z,0.70
2017-11-26T03:59:40.532Z,0.70
2017-11-26T04:02:08.058Z,0.70
2017-11-26T04:04:35.568Z,0.80
2017-11-26T04:07:03.076Z,0.80
2017-11-26T04:09:30.596Z,0.80
2017-11-26T04:11:58.900Z,0.90
2017-11-26T04:14:26.421Z,0.90
2017-11-26T04:16:53.940Z,0.90
2017-11-26T04:19:21.445Z,0.90
2017-11-26T04:21:49.734Z,0.90
2017-11-26T04:24:18.009Z,0.90
2017-11-26T04:26:46.293Z,0.90
2017-11-26T04:29:13.792Z,0.80
2017-11-26T04:31:41.311Z,0.80
2017-11-26T04:34:08.817Z,0.80
2017-11-26T04:36:36.342Z,0.70
2017-11-26T04:39:03.838Z,0.50
2017-11-26T04:41:31.358Z,0.40
2017-11-26T04:43:58.856Z,0.20
2017-11-26T04:46:26.368Z,0.30
2017-11-26T04:48:53.869Z,0.30
2017-11-26T04:51:21.393Z,0.30
2017-11-26T04:53:48.891Z,0.30
2017-11-26T04:56:16.429Z,0.30
2017-11-26T04:58:43.928Z,0.30
2017-11-26T05:01:12.201Z,0.40
2017-11-26T05:03:40.492Z,0.40
2017-11-26T05:06:08.768Z,0.30
2017-11-26T05:08:37.054Z,0.40
2017-11-26T05:11:04.565Z,0.40
2017-11-26T05:13:32.088Z,0.40
2017-11-26T05:15:59.597Z,0.40
2017-11-26T05:18:27.115Z,0.50
2017-11-26T05:20:54.616Z,0.30
2017-11-26T05:23:22.910Z,0.30
2017-11-26T05:25:51.174Z,0.30
2017-11-26T05:28:19.463Z,0.30
2017-11-26T05:30:47.732Z,0.20
2017-11-26T05:33:16.029Z,0.20
2017-11-26T05:35:43.539Z,0.20
2017-11-26T05:38:11.072Z,0.20
2017-11-26T05:40:38.577Z,0.20
2017-11-26T05:43:06.845Z,0.20
2017-11-26T05:45:35.136Z,0.20
2017-11-26T05:48:03.408Z,0.20
2017-11-26T05:50:31.688Z,0.20
2017-11-26T05:52:59.957Z,0.10
2017-11-26T05:55:28.235Z,0.10
2017-11-26T05:57:56.499Z,0.10
2017-11-26T06:00:24.018Z,0.10
2017-11-26T06:02:51.515Z,0.10
2017-11-26T06:05:19.037Z,0.10
2017-11-26T06:07:46.540Z,0.10
2017-11-26T06:10:15.108Z,0.20
2017-11-26T06:12:42.618Z,0.10
2017-11-26T06:15:10.168Z,0.20
2017-11-26T06:17:37.672Z,0.20
2017-11-26T06:20:05.193Z,0.20
2017-11-26T06:22:32.701Z,0.10
2017-11-26T06:25:00.220Z,0.20
2017-11-26T06:27:27.717Z,0.10
2017-11-26T06:29:55.244Z,0.00
2017-11-26T06:32:23.511Z,-0.10
2017-11-26T06:34:51.017Z,-0.10
2017-11-26T06:37:19.302Z,-0.30
2017-11-26T06:39:47.572Z,-0.40
2017-11-26T06:42:15.861Z,-0.40
2017-11-26T06:44:44.133Z,-0.40
2017-11-26T06:47:12.421Z,-0.50
2017-11-26T06:49:39.923Z,-0.50
2017-11-26T06:52:07.451Z,-0.50
2017-11-26T06:54:34.948Z,-0.60
2017-11-26T06:57:02.460Z,-0.60
2017-11-26T06:59:29.960Z,-0.70
2017-11-26T07:01:57.486Z,-0.60
2017-11-26T07:04:25.251Z,-0.60
2017-11-26T07:06:52.778Z,-0.70
2017-11-26T07:09:21.052Z,-0.50
2017-11-26T07:11:49.341Z,-0.60
2017-11-26T07:14:16.853Z,-0.60
2017-11-26T07:16:44.380Z,-0.50
2017-11-26T07:19:11.894Z,-0.30
2017-11-26T07:21:40.188Z,-0.30
2017-11-26T07:24:08.468Z,-0.10
2017-11-26T07:26:35.991Z,-0.10
2017-11-26T07:29:03.508Z,-0.10
2017-11-26T07:31:31.048Z,-0.10
2017-11-26T07:33:58.553Z,-0.10
2017-11-26T07:38:59.999Z,-0.10
2017-11-26T07:41:27.504Z,-0.10
2017-11-26T07:43:55.809Z,0.20
2017-11-26T07:46:23.326Z,0.20
2017-11-26T07:48:51.624Z,0.30
2017-11-26T07:51:19.889Z,0.60
2017-11-26T07:53:48.176Z,0.70
2017-11-26T07:56:16.435Z,0.60
2017-11-26T07:58:43.957Z,0.60
2017-11-26T08:01:11.464Z,0.70
2017-11-26T08:03:39.750Z,0.80
2017-11-26T08:06:07.277Z,0.80
2017-11-26T08:08:34.779Z,0.90
2017-11-26T08:11:02.308Z,1.00
2017-11-26T08:13:30.577Z,0.90
2017-11-26T08:15:58.100Z,0.80
2017-11-26T08:21:00.337Z,0.90
2017-11-26T08:23:28.607Z,0.80
2017-11-26T08:25:56.897Z,0.80
2017-11-26T08:28:24.413Z,0.80
2017-11-26T08:30:51.948Z,1.00
2017-11-26T08:33:19.452Z,1.10
2017-11-26T08:35:47.735Z,1.00
2017-11-26T08:38:16.013Z,1.00
2017-11-26T08:40:44.311Z,1.10
2017-11-26T08:43:11.821Z,1.10
2017-11-26T08:45:39.343Z,1.00
2017-11-26T08:48:06.853Z,1.10
2017-11-26T08:50:34.392Z,1.10
2017-11-26T08:53:01.900Z,1.20
2017-11-26T08:55:29.414Z,1.40
2017-11-26T08:57:56.940Z,1.30
2017-11-26T09:00:24.443Z,1.30
2017-11-26T09:02:51.960Z,1.40
2017-11-26T09:05:19.460Z,1.40
2017-11-26T09:08:04.445Z,1.30
2017-11-26T09:10:32.713Z,1.20
2017-11-26T09:13:01.005Z,1.20
2017-11-26T09:15:28.499Z,1.20
2017-11-26T09:17:56.031Z,1.30
2017-11-26T09:20:23.532Z,1.40
2017-11-26T09:22:51.049Z,1.40
2017-11-26T09:25:18.565Z,1.50
2017-11-26T09:27:46.085Z,1.50
2017-11-26T09:30:13.596Z,1.40
2017-11-26T09:32:41.880Z,1.40
2017-11-26T09:35:10.149Z,1.50
2017-11-26T09:37:38.433Z,1.50
2017-11-26T09:40:05.943Z,1.50
2017-11-26T09:42:33.479Z,1.70
2017-11-26T09:47:34.880Z,1.70
2017-11-26T09:50:02.385Z,1.80
2017-11-26T09:52:29.921Z,1.90
2017-11-26T09:54:58.193Z,1.90
2017-11-26T09:57:26.477Z,1.90
2017-11-26T09:59:54.739Z,1.60
2017-11-26T10:02:22.236Z,1.60
2017-11-26T10:04:49.747Z,1.50
2017-11-26T10:07:18.032Z,1.70
2017-11-26T10:09:46.317Z,1.90
2017-11-26T10:12:14.591Z,2.00
2017-11-26T10:14:42.880Z,1.60
2017-11-26T10:17:10.381Z,1.60
2017-11-26T10:19:38.656Z,1.60
2017-11-26T10:22:06.161Z,1.60
2017-11-26T10:24:34.449Z,1.70
2017-11-26T10:27:01.964Z,1.70
2017-11-26T10:29:29.477Z,1.60
2017-11-26T10:31:56.980Z,1.80
2017-11-26T10:34:24.497Z,1.70
2017-11-26T10:36:52.008Z,1.90
2017-11-26T10:39:19.529Z,1.90
2017-11-26T10:41:47.025Z,2.00
2017-11-26T10:44:14.550Z,1.60
2017-11-26T10:46:42.054Z,1.60
2017-11-26T10:49:10.340Z,1.30
2017-11-26T10:51:38.608Z,1.20
2017-11-26T10:54:06.946Z,1.40
2017-11-26T10:56:34.447Z,1.40
2017-11-26T10:59:02.709Z,1.40
2017-11-26T11:01:30.219Z,1.40
2017-11-26T11:03:57.728Z,1.40
2017-11-26T11:06:26.020Z,1.80
2017-11-26T11:08:54.280Z,1.60
2017-11-26T11:11:22.564Z,1.90
2017-11-26T11:13:50.824Z,1.80
2017-11-26T11:16:18.347Z,1.80
2017-11-26T11:18:46.608Z,2.00
2017-11-26T11:21:15.645Z,1.90
2017-11-26T11:23:43.140Z,2.00
2017-11-26T11:26:10.681Z,2.00
2017-11-26T11:28:38.969Z,2.20
2017-11-26T11:31:06.484Z,2.10
2017-11-26T11:33:33.996Z,2.10
2017-11-26T11:36:01.496Z,2.00
2017-11-26T11:38:29.012Z,2.10
2017-11-26T11:40:56.525Z,2.20
2017-11-26T11:43:24.052Z,2.20
2017-11-26T11:45:51.550Z,2.30
2017-11-26T11:48:19.085Z,2.20
2017-11-26T11:50:46.580Z,2.00
2017-11-26T11:53:14.880Z,2.10
2017-11-26T11:55:42.389Z,2.10
2017-11-26T11:58:09.905Z,2.20
2017-11-26T12:00:37.400Z,2.20
2017-11-26T12:03:05.681Z,2.30
2017-11-26T12:05:33.188Z,2.30
2017-11-26T12:08:00.700Z,2.20
2017-11-26T12:10:28.202Z,2.30
2017-11-26T12:12:55.713Z,2.00
2017-11-26T12:15:23.221Z,2.10
2017-11-26T12:17:50.749Z,2.20
2017-11-26T12:20:19.013Z,2.10
2017-11-26T12:22:46.535Z,2.10
2017-11-26T12:25:14.041Z,2.10
2017-11-26T12:27:42.357Z,2.30
2017-11-26T12:30:09.863Z,2.20
2017-11-26T12:32:37.364Z,2.40
2017-11-26T12:35:04.872Z,2.50
2017-11-26T12:37:32.404Z,2.30
2017-11-26T12:40:00.006Z,2.10
2017-11-26T12:42:28.390Z,1.80
2017-11-26T12:44:56.083Z,1.80
2017-11-26T12:47:23.612Z,1.80
2017-11-26T12:49:51.909Z,2.00
2017-11-26T12:52:19.403Z,2.00
2017-11-26T12:54:47.697Z,2.40
2017-11-26T12:57:15.196Z,2.30
2017-11-26T12:59:43.535Z,2.30
2017-11-26T13:02:11.060Z,2.10
2017-11-26T13:04:38.580Z,2.30
2017-11-26T13:07:06.865Z,2.10
2017-11-26T13:09:35.123Z,2.10
2017-11-26T13:12:03.416Z,1.90
2017-11-26T13:14:30.923Z,1.90
2017-11-26T13:16:58.446Z,1.80
2017-11-26T13:19:25.969Z,2.00
2017-11-26T13:21:53.487Z,2.10
2017-11-26T13:24:21.753Z,2.10
2017-11-26T13:26:49.264Z,2.10
2017-11-26T13:29:17.536Z,2.10
2017-11-26T13:31:45.061Z,2.10
2017-11-26T13:34:12.620Z,2.10
2017-11-26T13:36:40.137Z,1.90
2017-11-26T13:39:07.640Z,2.00
2017-11-26T13:41:35.147Z,2.00
2017-11-26T13:44:03.425Z,2.00
2017-11-26T13:46:30.989Z,2.00
2017-11-26T13:48:58.487Z,1.90
2017-11-26T13:51:26.772Z,1.80
2017-11-26T13:53:54.287Z,1.80
2017-11-26T13:56:21.820Z,1.90
2017-11-26T13:58:50.108Z,1.70
2017-11-26T14:01:17.613Z,1.70
2017-11-26T14:03:45.160Z,1.80
2017-11-26T14:06:12.717Z,1.80
2017-11-26T14:08:40.325Z,1.70
2017-11-26T14:11:08.639Z,1.50
2017-11-26T14:13:36.970Z,1.50
2017-11-26T14:16:05.805Z,1.70
2017-11-26T14:18:33.366Z,1.60
2017-11-26T14:21:00.896Z,1.50
2017-11-26T14:23:29.175Z,1.50
2017-11-26T14:25:57.453Z,1.30
2017-11-26T14:28:24.980Z,1.30
2017-11-26T14:30:52.480Z,1.40
2017-11-26T14:33:20.030Z,1.50
2017-11-26T14:35:47.552Z,1.30
2017-11-26T14:38:15.051Z,1.40
2017-11-26T14:40:42.598Z,1.40
2017-11-26T14:43:10.871Z,1.20
2017-11-26T14:45:39.172Z,1.30
2017-11-26T14:48:06.681Z,1.30
2017-11-26T14:50:34.203Z,1.50
2017-11-26T14:53:01.703Z,1.50
2017-11-26T14:55:29.224Z,1.40
2017-11-26T14:57:56.733Z,1.30
2017-11-26T15:00:25.057Z,1.10
2017-11-26T15:02:52.589Z,1.10
2017-11-26T15:05:20.136Z,1.10
2017-11-26T15:07:48.395Z,1.00
2017-11-26T15:10:15.899Z,0.90
2017-11-26T15:12:43.445Z,1.10
2017-11-26T15:15:10.940Z,1.10
2017-11-26T15:17:38.472Z,1.20
2017-11-26T15:20:05.977Z,1.10
2017-11-26T15:22:33.492Z,1.20
2017-11-26T15:25:01.001Z,1.20
2017-11-26T15:27:28.540Z,1.20
2017-11-26T15:29:56.072Z,1.00
2017-11-26T15:32:23.596Z,1.10
2017-11-26T15:34:51.873Z,0.90
2017-11-26T15:37:20.160Z,0.90
2017-11-26T15:39:47.689Z,0.80
2017-11-26T15:42:15.998Z,0.60
2017-11-26T15:44:43.532Z,0.60
2017-11-26T15:47:11.817Z,0.60
2017-11-26T15:49:40.085Z,0.60
2017-11-26T15:52:09.227Z,0.60
2017-11-26T15:54:37.055Z,0.60
2017-11-26T15:57:05.528Z,0.50
2017-11-26T15:59:33.180Z,0.50
2017-11-26T16:02:01.594Z,0.60
2017-11-26T16:04:29.185Z,0.60
2017-11-26T16:06:57.908Z,0.70
2017-11-26T16:09:25.474Z,0.70
2017-11-26T16:11:53.739Z,0.70
2017-11-26T16:14:22.028Z,0.80
2017-11-26T16:16:50.291Z,0.70
2017-11-26T16:19:18.580Z,0.60
2017-11-26T16:21:46.850Z,0.70
2017-11-26T16:24:15.131Z,0.60
2017-11-26T16:26:43.532Z,0.70
2017-11-26T16:29:11.212Z,0.60
2017-11-26T16:31:38.854Z,0.70
2017-11-26T16:34:07.054Z,0.70
2017-11-26T16:36:34.634Z,0.80
2017-11-26T16:39:03.231Z,0.90
2017-11-26T16:41:30.829Z,0.80
2017-11-26T16:43:58.432Z,0.70
2017-11-26T16:46:25.948Z,0.60
2017-11-26T16:48:53.480Z,0.60
2017-11-26T16:51:20.980Z,0.70
2017-11-26T16:53:48.517Z,0.70
2017-11-26T16:56:16.785Z,0.50
2017-11-26T16:58:45.050Z,0.50
2017-11-26T17:01:13.332Z,0.50
2017-11-26T17:03:41.603Z,0.40
2017-11-26T17:06:09.883Z,0.20
2017-11-26T17:08:38.157Z,0.10
2017-11-26T17:11:06.440Z,0.00
2017-11-26T17:13:34.717Z,0.10
2017-11-26T17:16:03.004Z,0.10
2017-11-26T17:18:30.508Z,0.10
2017-11-26T17:20:58.804Z,0.00
2017-11-26T17:23:26.350Z,0.00
2017-11-26T17:25:53.870Z,0.00
2017-11-26T17:28:21.368Z,0.00
2017-11-26T17:30:48.889Z,0.00
2017-11-26T17:33:16.393Z,0.00
2017-11-26T17:35:43.908Z,0.10
2017-11-26T17:38:11.478Z,0.10
2017-11-26T17:40:38.990Z,0.20
2017-11-26T17:43:07.269Z,0.20
2017-11-26T17:45:35.548Z,0.30
2017-11-26T17:48:03.812Z,0.20
2017-11-26T17:50:32.095Z,0.10
2017-11-26T17:53:00.361Z,0.10
2017-11-26T17:55:27.892Z,0.10
2017-11-26T17:57:55.383Z,0.20
2017-11-26T18:00:23.652Z,0.30
2017-11-26T18:02:51.948Z,0.40
2017-11-26T18:05:20.218Z,0.50
2017-11-26T18:07:48.504Z,0.50
2017-11-26T18:10:16.012Z,0.50
2017-11-26T18:12:43.537Z,0.50
2017-11-26T18:15:11.041Z,0.50
2017-11-26T18:17:38.560Z,0.50
2017-11-26T18:20:06.090Z,0.60
2017-11-26T18:22:34.378Z,0.50
2017-11-26T18:25:01.885Z,0.50
2017-11-26T18:27:29.396Z,0.60
2017-11-26T18:29:56.900Z,0.70
2017-11-26T18:32:24.422Z,0.70
2017-11-26T18:34:51.962Z,0.60
2017-11-26T18:37:19.477Z,0.80
2017-11-26T18:39:46.972Z,0.80
2017-11-26T18:42:15.249Z,0.50
2017-11-26T18:44:42.752Z,0.50
2017-11-26T18:47:10.267Z,0.50
2017-11-26T18:49:37.764Z,0.50
2017-11-26T18:52:05.308Z,0.50
2017-11-26T18:54:32.820Z,0.50
2017-11-26T18:57:01.125Z,0.50
2017-11-26T18:59:28.652Z,0.40
2017-11-26T19:01:56.149Z,0.30
2017-11-26T19:04:23.709Z,0.40
2017-11-26T19:06:51.208Z,0.40
2017-11-26T19:09:18.764Z,0.40
2017-11-26T19:11:46.264Z,0.30
2017-11-26T19:14:14.548Z,0.20
2017-11-26T19:16:42.068Z,0.20
2017-11-26T19:19:09.588Z,0.20
2017-11-26T19:21:37.101Z,0.30
2017-11-26T19:24:05.384Z,0.20
2017-11-26T19:26:33.749Z,0.30
2017-11-26T19:29:02.110Z,0.30
2017-11-26T19:31:29.675Z,0.30
2017-11-26T19:33:57.269Z,0.40
2017-11-26T19:36:25.886Z,0.40
2017-11-26T19:38:53.458Z,0.40
2017-11-26T19:41:20.986Z,0.40
2017-11-26T19:43:48.507Z,0.40
2017-11-26T19:46:16.773Z,0.50
2017-11-26T19:48:44.299Z,0.50
2017-11-26T19:51:11.804Z,0.40
2017-11-26T19:53:40.083Z,0.50
2017-11-26T19:56:08.364Z,0.50
2017-11-26T19:58:53.424Z,0.60
2017-11-26T20:01:21.692Z,0.50
2017-11-26T20:03:49.205Z,0.40
2017-11-26T20:06:16.701Z,0.40
2017-11-26T20:08:44.196Z,0.40
2017-11-26T20:11:11.709Z,0.30
2017-11-26T20:13:39.207Z,0.30
2017-11-26T20:16:06.717Z,0.30
2017-11-26T20:18:34.216Z,0.20
2017-11-26T20:21:02.497Z,0.20
2017-11-26T20:23:29.992Z,0.20
2017-11-26T20:25:57.523Z,0.10
2017-11-26T20:28:25.021Z,0.10
2017-11-26T20:30:52.552Z,0.00
2017-11-26T20:33:20.051Z,-0.10
2017-11-26T20:35:47.560Z,0.00
2017-11-26T20:38:15.060Z,-0.10
2017-11-26T20:40:42.576Z,-0.10
2017-11-26T20:43:10.080Z,-0.10
2017-11-26T20:45:37.593Z,-0.10
2017-11-26T20:48:05.095Z,-0.10
2017-11-26T20:50:32.619Z,-0.20
2017-11-26T20:53:00.121Z,-0.20
2017-11-26T20:55:27.636Z,-0.10
2017-11-26T20:57:55.136Z,-0.20
2017-11-26T21:00:22.672Z,-0.20
2017-11-26T21:02:50.177Z,-0.40
2017-11-26T21:05:18.487Z,-0.30
2017-11-26T21:07:46.008Z,-0.40
2017-11-26T21:10:14.277Z,-0.40
2017-11-26T21:12:42.560Z,-0.30
2017-11-26T21:15:10.823Z,-0.20
2017-11-26T21:17:38.345Z,-0.20
2017-11-26T21:20:05.856Z,-0.10
2017-11-26T21:22:34.294Z,-0.20
2017-11-26T21:25:01.852Z,-0.20
2017-11-26T21:27:29.420Z,-0.20
2017-11-26T21:29:56.986Z,-0.10
2017-11-26T21:32:25.349Z,-0.10
2017-11-26T21:34:52.926Z,-0.10
2017-11-26T21:37:20.502Z,-0.10
2017-11-26T21:39:49.045Z,-0.20
2017-11-26T21:42:16.642Z,-0.20
2017-11-26T21:44:44.981Z,-0.10
2017-11-26T21:47:12.578Z,-0.10
2017-11-26T21:49:40.847Z,-0.10
2017-11-26T21:52:08.372Z,-0.10
2017-11-26T21:54:35.916Z,-0.10
2017-11-26T21:57:03.436Z,-0.10
2017-11-26T21:59:31.741Z,-0.10
2017-11-26T22:01:59.257Z,-0.10
2017-11-26T22:04:26.755Z,0.00
2017-11-26T22:06:54.292Z,0.00
2017-11-26T22:09:22.560Z,0.00
2017-11-26T22:11:50.821Z,0.00
2017-11-26T22:14:18.340Z,0.00
2017-11-26T22:16:45.860Z,0.10
2017-11-26T22:19:14.151Z,0.20
2017-11-26T22:21:41.643Z,0.10
2017-11-26T22:24:09.923Z,0.20
2017-11-26T22:26:37.581Z,0.20
2017-11-26T22:29:05.822Z,0.10
2017-11-26T22:31:33.361Z,0.20
2017-11-26T22:34:01.644Z,0.20
2017-11-26T22:36:29.909Z,0.20
2017-11-26T22:38:58.197Z,0.20
2017-11-26T22:41:26.451Z,0.20
2017-11-26T22:43:53.960Z,0.20
2017-11-26T22:46:21.465Z,0.30
2017-11-26T22:48:48.976Z,0.20
2017-11-26T22:51:16.476Z,0.20
2017-11-26T22:53:43.986Z,0.20
2017-11-26T22:56:11.483Z,0.20
2017-11-26T22:58:39.050Z,0.30
2017-11-26T23:01:06.556Z,0.30
2017-11-26T23:03:34.074Z,0.20
2017-11-26T23:06:01.577Z,0.30
2017-11-26T23:08:29.115Z,0.30
2017-11-26T23:10:56.612Z,0.30
2017-11-26T23:13:24.116Z,0.20
2017-11-26T23:15:52.396Z,0.20
2017-11-26T23:18:20.706Z,0.20
2017-11-26T23:20:48.224Z,0.10
2017-11-26T23:23:16.532Z,0.10
2017-11-26T23:25:44.053Z,0.10
2017-11-26T23:28:11.595Z,0.10
2017-11-26T23:30:39.104Z,0.10
2017-11-26T23:33:06.605Z,0.20
2017-11-26T23:35:34.125Z,0.20
2017-11-26T23:38:01.622Z,0.10
2017-11-26T23:40:29.145Z,0.20
2017-11-26T23:42:56.641Z,0.20
2017-11-26T23:45:24.153Z,0.10
2017-11-26T23:47:51.660Z,0.10
2017-11-26T23:50:19.176Z,0.10
2017-11-26T23:52:46.677Z,0.00
2017-11-26T23:55:14.205Z,0.00
2017-11-26T23:57:41.709Z,-0.10
